createdAt,value
2023-05-12T00:01:34.396Z,101099.34
2023-05-12T00:04:01.877Z,101097.03
2023-05-12T00:06:29.014Z,101098.59
2023-05-12T00:08:58.472Z,101092.25
2023-05-12T00:11:26.241Z,101092.41
2023-05-12T00:13:55.496Z,101093.69
2023-05-12T00:16:22.661Z,101095.09
2023-05-12T00:18:49.884Z,101103.25
2023-05-12T00:21:16.991Z,101098.13
2023-05-12T00:23:44.030Z,101101.13
2023-05-12T00:26:11.105Z,101097.66
2023-05-12T00:28:38.153Z,101093.97
2023-05-12T00:31:05.437Z,101100.63
2023-05-12T00:33:32.721Z,101098.00
2023-05-12T00:36:03.955Z,101105.16
2023-05-12T00:38:31.079Z,101101.75
2023-05-12T00:40:58.105Z,101106.78
2023-05-12T00:43:25.173Z,101099.38
2023-05-12T00:45:52.754Z,101100.03
2023-05-12T00:48:20.455Z,101100.59
2023-05-12T00:50:47.582Z,101096.72
2023-05-12T00:53:15.136Z,101100.88
2023-05-12T00:55:43.734Z,101099.22
2023-05-12T00:58:10.815Z,101105.31
2023-05-12T01:00:37.861Z,101105.19
2023-05-12T01:03:05.379Z,101098.66
2023-05-12T01:06:09.995Z,101101.03
2023-05-12T01:08:38.684Z,101104.78
2023-05-12T01:11:06.472Z,101105.19
2023-05-12T01:13:33.681Z,101113.38
2023-05-12T01:16:03.211Z,101109.31
2023-05-12T01:18:31.929Z,101113.78
2023-05-12T01:21:00.416Z,101113.06
2023-05-12T01:23:37.551Z,101115.94
2023-05-12T01:26:09.019Z,101117.22
2023-05-12T01:28:37.711Z,101118.94
2023-05-12T01:31:06.729Z,101117.31
2023-05-12T01:33:35.515Z,101121.31
2023-05-12T01:36:02.603Z,101123.22
2023-05-12T01:38:29.648Z,101126.47
2023-05-12T01:40:58.574Z,101126.34
2023-05-12T01:43:25.633Z,101127.19
2023-05-12T01:45:52.677Z,101121.59
2023-05-12T01:48:19.735Z,101117.47
2023-05-12T01:50:46.802Z,101120.09
2023-05-12T01:53:13.927Z,101115.34
2023-05-12T01:55:41.080Z,101118.84
2023-05-12T01:58:08.142Z,101123.25
2023-05-12T02:00:35.340Z,101123.84
2023-05-12T02:03:02.572Z,101122.91
2023-05-12T02:05:29.942Z,101120.88
2023-05-12T02:07:57.164Z,101125.50
2023-05-12T02:10:24.193Z,101123.25
2023-05-12T02:12:51.362Z,101129.38
2023-05-12T02:15:18.508Z,101137.72
2023-05-12T02:17:45.590Z,101139.31
2023-05-12T02:20:13.173Z,101136.13
2023-05-12T02:22:40.257Z,101137.47
2023-05-12T02:25:08.077Z,101139.53
2023-05-12T02:27:37.335Z,101147.44
2023-05-12T02:30:05.947Z,101155.31
2023-05-12T02:32:33.592Z,101157.38
2023-05-12T02:35:00.993Z,101146.22
2023-05-12T02:37:28.016Z,101149.94
2023-05-12T02:39:55.088Z,101157.97
2023-05-12T02:42:22.130Z,101152.19
2023-05-12T02:44:49.340Z,101152.88
2023-05-12T02:47:16.406Z,101155.56
2023-05-12T02:49:43.595Z,101159.34
2023-05-12T02:52:10.657Z,101153.78
2023-05-12T02:54:37.700Z,101154.97
2023-05-12T02:57:06.676Z,101144.72
2023-05-12T02:59:33.768Z,101151.03
2023-05-12T03:02:05.621Z,101148.56
2023-05-12T03:04:33.134Z,101148.19
2023-05-12T03:07:00.221Z,101151.13
2023-05-12T03:09:30.301Z,101141.44
2023-05-12T03:11:57.349Z,101147.09
2023-05-12T03:14:26.187Z,101151.38
2023-05-12T03:16:53.255Z,101147.78
2023-05-12T03:19:20.657Z,101151.50
2023-05-12T03:21:49.106Z,101152.47
2023-05-12T03:24:16.416Z,101153.47
2023-05-12T03:26:43.598Z,101147.03
2023-05-12T03:29:10.798Z,101147.56
2023-05-12T03:31:38.051Z,101162.31
2023-05-12T03:34:05.554Z,101156.78
2023-05-12T03:36:32.710Z,101155.44
2023-05-12T03:38:59.751Z,101159.81
2023-05-12T03:41:26.811Z,101158.00
2023-05-12T03:43:53.846Z,101164.28
2023-05-12T03:46:21.087Z,101155.84
2023-05-12T03:48:48.206Z,101157.75
2023-05-12T03:51:15.253Z,101162.31
2023-05-12T03:53:45.265Z,101164.06
2023-05-12T03:56:12.588Z,101165.81
2023-05-12T03:58:39.696Z,101168.03
2023-05-12T04:01:06.855Z,101170.75
2023-05-12T04:03:34.085Z,101169.56
2023-05-12T04:06:03.241Z,101171.16
2023-05-12T04:08:31.213Z,101168.63
2023-05-12T04:11:01.007Z,101178.91
2023-05-12T04:13:31.956Z,101171.47
2023-05-12T04:16:00.947Z,101172.44
2023-05-12T04:18:28.601Z,101175.97
2023-05-12T04:20:56.352Z,101175.94
2023-05-12T04:23:23.918Z,101180.97
2023-05-12T04:25:54.377Z,101178.41
2023-05-12T04:28:21.464Z,101182.22
2023-05-12T04:30:48.571Z,101183.00
2023-05-12T04:33:15.620Z,101185.66
2023-05-12T04:35:45.572Z,101182.69
2023-05-12T04:38:13.502Z,101183.19
2023-05-12T04:40:41.101Z,101188.09
2023-05-12T04:43:08.149Z,101186.00
2023-05-12T04:45:38.167Z,101200.72
2023-05-12T04:48:05.809Z,101195.97
2023-05-12T04:50:32.900Z,101195.91
2023-05-12T04:52:59.971Z,101201.75
2023-05-12T04:55:27.185Z,101201.13
2023-05-12T04:57:54.195Z,101194.81
2023-05-12T05:00:21.398Z,101203.81
2023-05-12T05:02:48.607Z,101200.41
2023-05-12T05:05:15.953Z,101202.56
2023-05-12T05:07:43.142Z,101211.94
2023-05-12T05:10:10.886Z,101212.59
2023-05-12T05:12:37.923Z,101211.66
2023-05-12T05:15:06.216Z,101210.13
2023-05-12T05:17:33.732Z,101214.03
2023-05-12T05:20:00.901Z,101220.53
2023-05-12T05:22:28.026Z,101221.63
2023-05-12T05:24:55.125Z,101224.34
2023-05-12T05:27:22.208Z,101222.41
2023-05-12T05:29:51.408Z,101224.66
2023-05-12T05:32:18.602Z,101224.69
2023-05-12T05:34:45.665Z,101223.69
2023-05-12T05:37:13.089Z,101218.28
2023-05-12T05:39:40.230Z,101222.31
2023-05-12T05:42:07.729Z,101213.28
2023-05-12T05:44:34.779Z,101229.88
2023-05-12T05:47:02.954Z,101226.53
2023-05-12T05:49:30.589Z,101226.88
2023-05-12T05:51:57.682Z,101234.19
2023-05-12T05:54:25.502Z,101234.28
2023-05-12T05:56:52.598Z,101237.16
2023-05-12T05:59:19.724Z,101241.59
2023-05-12T06:01:46.937Z,101234.06
2023-05-12T06:04:14.203Z,101237.13
2023-05-12T06:06:41.820Z,101244.16
2023-05-12T06:09:12.683Z,101243.66
2023-05-12T06:11:39.744Z,101239.25
2023-05-12T06:14:07.271Z,101235.19
2023-05-12T06:16:34.368Z,101246.78
2023-05-12T06:19:01.833Z,101247.50
2023-05-12T06:21:29.285Z,101241.94
2023-05-12T06:23:57.345Z,101250.56
2023-05-12T06:26:24.428Z,101254.78
2023-05-12T06:28:53.601Z,101253.69
2023-05-12T06:31:20.718Z,101259.00
2023-05-12T06:33:47.964Z,101260.38
2023-05-12T06:36:15.116Z,101261.47
2023-05-12T06:38:42.167Z,101266.69
2023-05-12T06:41:09.234Z,101264.41
2023-05-12T06:43:37.721Z,101262.13
2023-05-12T06:46:04.905Z,101263.25
2023-05-12T06:48:32.034Z,101257.34
2023-05-12T06:50:59.067Z,101271.59
2023-05-12T06:53:27.420Z,101269.53
2023-05-12T06:55:55.092Z,101267.66
2023-05-12T06:58:22.334Z,101264.91
2023-05-12T07:00:49.450Z,101261.59
2023-05-12T07:03:16.792Z,101266.03
2023-05-12T07:05:44.008Z,101266.00
2023-05-12T07:08:11.109Z,101257.75
2023-05-12T07:10:38.272Z,101259.59
2023-05-12T07:13:05.721Z,101259.84
2023-05-12T07:15:33.177Z,101256.09
2023-05-12T07:18:00.477Z,101264.84
2023-05-12T07:20:27.831Z,101265.06
2023-05-12T07:22:56.518Z,101265.09
2023-05-12T07:25:23.949Z,101265.69
2023-05-12T07:27:51.182Z,101264.91
2023-05-12T07:30:18.365Z,101270.78
2023-05-12T07:32:46.167Z,101266.84
2023-05-12T07:35:13.679Z,101271.03
2023-05-12T07:37:41.434Z,101269.22
2023-05-12T07:40:09.071Z,101273.38
2023-05-12T07:42:36.152Z,101273.59
2023-05-12T07:45:04.019Z,101273.25
2023-05-12T07:47:31.486Z,101260.53
2023-05-12T07:49:58.658Z,101271.56
2023-05-12T07:52:25.888Z,101263.44
2023-05-12T07:54:53.001Z,101261.72
2023-05-12T07:57:23.041Z,101268.16
2023-05-12T07:59:55.092Z,101267.09
2023-05-12T08:02:22.273Z,101266.22
2023-05-12T08:04:50.995Z,101276.59
2023-05-12T08:07:18.282Z,101272.56
2023-05-12T08:09:45.346Z,101268.88
2023-05-12T08:12:12.497Z,101267.72
2023-05-12T08:14:39.601Z,101274.06
2023-05-12T08:17:06.857Z,101275.41
2023-05-12T08:19:34.157Z,101269.66
2023-05-12T08:22:01.958Z,101280.09
2023-05-12T08:24:29.305Z,101268.44
2023-05-12T08:26:56.485Z,101269.94
2023-05-12T08:29:23.557Z,101256.97
2023-05-12T08:31:53.009Z,101259.00
2023-05-12T08:34:20.430Z,101271.06
2023-05-12T08:36:52.455Z,101270.41
2023-05-12T08:39:20.857Z,101263.16
2023-05-12T08:42:17.837Z,101267.63
2023-05-12T08:44:46.636Z,101261.66
2023-05-12T08:47:15.391Z,101254.50
2023-05-12T08:49:44.323Z,101266.13
2023-05-12T08:52:18.420Z,101263.53
2023-05-12T08:54:55.623Z,101268.91
2023-05-12T08:57:24.574Z,101265.56
2023-05-12T08:59:56.001Z,101274.84
2023-05-12T09:02:24.517Z,101262.47
2023-05-12T09:04:52.868Z,101270.53
2023-05-12T09:07:24.769Z,101261.34
2023-05-12T09:10:00.947Z,101275.22
2023-05-12T09:12:34.718Z,101264.44
2023-05-12T09:15:14.816Z,101263.19
2023-05-12T09:17:43.198Z,101265.19
2023-05-12T09:20:23.889Z,101266.97
2023-05-12T09:22:58.284Z,101262.59
2023-05-12T09:25:25.986Z,101265.19
2023-05-12T09:27:57.527Z,101260.19
2023-05-12T09:30:35.697Z,101261.81
2023-05-12T09:33:22.939Z,101259.78
2023-05-12T09:35:50.209Z,101251.41
2023-05-12T09:38:17.416Z,101267.78
2023-05-12T09:40:45.361Z,101261.75
2023-05-12T09:43:15.523Z,101263.38
2023-05-12T09:45:44.103Z,101268.13
2023-05-12T09:48:14.140Z,101247.84
2023-05-12T09:50:51.169Z,101258.25
2023-05-12T09:53:20.526Z,101252.00
2023-05-12T09:55:48.623Z,101260.34
2023-05-12T09:58:20.056Z,101257.19
2023-05-12T10:03:23.699Z,101253.06
2023-05-12T10:05:57.825Z,101249.00
2023-05-12T10:08:44.330Z,101256.38
2023-05-12T10:11:11.533Z,101261.50
2023-05-12T10:13:39.779Z,101252.94
2023-05-12T10:16:08.699Z,101253.56
2023-05-12T10:18:36.352Z,101242.38
2023-05-12T10:21:05.227Z,101248.38
2023-05-12T10:23:32.797Z,101257.59
2023-05-12T10:26:02.358Z,101245.78
2023-05-12T10:28:30.295Z,101243.97
2023-05-12T10:30:58.503Z,101244.09
2023-05-12T10:33:29.133Z,101239.84
2023-05-12T10:35:56.318Z,101248.09
2023-05-12T10:38:23.482Z,101236.53
2023-05-12T10:40:59.172Z,101245.16
2023-05-12T10:43:29.818Z,101233.44
2023-05-12T10:46:19.687Z,101230.63
2023-05-12T10:49:03.453Z,101232.88
2023-05-12T10:51:49.849Z,101236.34
2023-05-12T10:54:26.280Z,101232.41
2023-05-12T10:57:02.231Z,101227.75
2023-05-12T10:59:31.463Z,101237.13
2023-05-12T11:02:16.853Z,101235.66
2023-05-12T11:05:00.459Z,101239.34
2023-05-12T11:07:32.855Z,101236.53
2023-05-12T11:10:04.663Z,101224.91
2023-05-12T11:12:40.119Z,101229.56
2023-05-12T11:15:08.084Z,101231.38
2023-05-12T11:17:42.166Z,101225.28
2023-05-12T11:20:09.991Z,101222.75
2023-05-12T11:22:37.302Z,101221.56
2023-05-12T11:25:12.539Z,101215.47
2023-05-12T11:27:45.676Z,101229.06
2023-05-12T11:30:13.516Z,101221.19
2023-05-12T11:32:40.901Z,101228.22
2023-05-12T11:35:19.621Z,101226.59
2023-05-12T11:37:47.283Z,101221.44
2023-05-12T11:40:22.440Z,101219.81
2023-05-12T11:42:52.586Z,101225.72
2023-05-12T11:45:30.353Z,101222.06
2023-05-12T11:48:15.045Z,101227.53
2023-05-12T11:50:49.404Z,101234.19
2023-05-12T11:53:19.906Z,101233.63
2023-05-12T11:55:57.469Z,101236.88
2023-05-12T11:58:30.338Z,101241.88
2023-05-12T12:01:12.678Z,101234.91
2023-05-12T12:03:51.105Z,101242.09
2023-05-12T12:06:23.113Z,101238.16
2023-05-12T12:08:56.890Z,101243.03
2023-05-12T12:11:28.380Z,101243.59
2023-05-12T12:13:57.559Z,101240.16
2023-05-12T12:16:26.718Z,101250.16
2023-05-12T12:18:54.324Z,101239.31
2023-05-12T12:21:25.500Z,101236.03
2023-05-12T12:23:52.792Z,101231.97
2023-05-12T12:26:21.551Z,101224.56
2023-05-12T12:28:50.309Z,101240.38
2023-05-12T12:31:17.757Z,101236.31
2023-05-12T12:33:44.863Z,101232.75
2023-05-12T12:36:16.257Z,101229.78
2023-05-12T12:38:43.528Z,101231.41
2023-05-12T12:41:10.649Z,101236.47
2023-05-12T12:43:37.767Z,101241.94
2023-05-12T12:46:05.013Z,101227.25
2023-05-12T12:48:33.451Z,101227.78
2023-05-12T12:51:01.832Z,101233.38
2023-05-12T12:53:29.014Z,101227.59
2023-05-12T12:55:56.620Z,101235.25
2023-05-12T12:58:23.901Z,101231.56
2023-05-12T13:00:51.276Z,101231.94
2023-05-12T13:03:20.306Z,101238.78
2023-05-12T13:05:47.648Z,101234.38
2023-05-12T13:08:16.418Z,101220.38
2023-05-12T13:10:44.154Z,101227.63
2023-05-12T13:13:13.992Z,101219.78
2023-05-12T13:15:42.595Z,101216.88
2023-05-12T13:18:09.817Z,101222.75
2023-05-12T13:20:37.062Z,101232.13
2023-05-12T13:23:04.619Z,101227.56
2023-05-12T13:25:32.194Z,101223.81
2023-05-12T13:27:59.334Z,101226.41
2023-05-12T13:30:27.895Z,101217.56
2023-05-12T13:32:55.333Z,101216.34
2023-05-12T13:35:22.841Z,101214.25
2023-05-12T13:37:50.132Z,101220.00
2023-05-12T13:40:17.299Z,101218.31
2023-05-12T13:42:44.349Z,101218.94
2023-05-12T13:45:11.792Z,101211.13
2023-05-12T13:47:39.705Z,101215.53
2023-05-12T13:50:08.428Z,101224.56
2023-05-12T13:52:35.651Z,101211.84
2023-05-12T13:55:03.127Z,101215.28
2023-05-12T13:57:30.228Z,101212.44
2023-05-12T13:59:58.461Z,101208.69
2023-05-12T14:02:25.892Z,101205.59
2023-05-12T14:04:53.152Z,101212.25
2023-05-12T14:07:21.069Z,101198.88
2023-05-12T14:09:48.192Z,101201.44
2023-05-12T14:12:15.277Z,101214.06
2023-05-12T14:14:47.182Z,101214.25
2023-05-12T14:17:14.264Z,101218.75
2023-05-12T14:19:41.955Z,101203.66
2023-05-12T14:22:18.970Z,101208.72
2023-05-12T14:24:55.813Z,101207.91
2023-05-12T14:27:23.348Z,101203.34
2023-05-12T14:29:50.512Z,101210.69
2023-05-12T14:32:18.237Z,101217.34
2023-05-12T14:34:45.521Z,101211.91
2023-05-12T14:37:12.593Z,101210.69
2023-05-12T14:39:39.660Z,101208.41
2023-05-12T14:42:07.147Z,101202.75
2023-05-12T14:44:34.192Z,101203.69
2023-05-12T14:47:01.275Z,101203.25
2023-05-12T14:49:28.740Z,101205.81
2023-05-12T14:51:55.839Z,101204.88
2023-05-12T14:54:25.662Z,101206.41
2023-05-12T14:56:53.573Z,101210.25
2023-05-12T14:59:20.767Z,101205.59
2023-05-12T15:01:47.945Z,101207.84
2023-05-12T15:04:15.039Z,101209.41
2023-05-12T15:06:42.148Z,101211.31
2023-05-12T15:09:10.852Z,101210.59
2023-05-12T15:11:37.944Z,101209.84
2023-05-12T15:14:05.139Z,101207.78
2023-05-12T15:16:33.142Z,101209.69
2023-05-12T15:19:00.341Z,101205.75
2023-05-12T15:21:27.549Z,101222.75
2023-05-12T15:23:54.631Z,101214.50
2023-05-12T15:26:33.838Z,101211.66
2023-05-12T15:29:02.335Z,101224.34
2023-05-12T15:31:30.322Z,101212.72
2023-05-12T15:33:57.917Z,101204.13
2023-05-12T15:36:25.031Z,101213.31
2023-05-12T15:38:52.908Z,101218.00
2023-05-12T15:41:20.026Z,101210.47
2023-05-12T15:43:47.317Z,101206.72
2023-05-12T15:46:14.470Z,101213.72
2023-05-12T15:48:41.613Z,101202.63
2023-05-12T15:51:08.666Z,101203.50
2023-05-12T15:53:36.701Z,101203.16
2023-05-12T15:56:05.570Z,101199.72
2023-05-12T15:58:32.739Z,101206.78
2023-05-12T16:00:59.986Z,101201.59
2023-05-12T16:03:27.327Z,101202.28
2023-05-12T16:05:55.136Z,101198.13
2023-05-12T16:08:23.893Z,101203.53
2023-05-12T16:10:51.267Z,101198.06
2023-05-12T16:13:18.380Z,101199.50
2023-05-12T16:15:45.461Z,101196.84
2023-05-12T16:18:12.541Z,101196.53
2023-05-12T16:20:41.586Z,101197.03
2023-05-12T16:23:08.804Z,101194.22
2023-05-12T16:25:36.148Z,101185.81
2023-05-12T16:28:04.529Z,101190.69
2023-05-12T16:30:31.639Z,101197.16
2023-05-12T16:32:58.814Z,101190.09
2023-05-12T16:35:25.911Z,101194.19
2023-05-12T16:37:53.111Z,101196.25
2023-05-12T16:40:20.340Z,101195.28
2023-05-12T16:42:48.979Z,101194.81
2023-05-12T16:45:16.109Z,101193.41
2023-05-12T16:47:43.465Z,101197.63
2023-05-12T16:50:11.573Z,101193.44
2023-05-12T16:52:39.891Z,101196.81
2023-05-12T16:55:07.928Z,101204.06
2023-05-12T16:57:35.261Z,101203.13
2023-05-12T17:00:05.756Z,101190.06
2023-05-12T17:02:33.836Z,101200.72
2023-05-12T17:05:01.351Z,101196.72
2023-05-12T17:07:30.990Z,101195.75
2023-05-12T17:09:58.156Z,101202.31
2023-05-12T17:12:25.396Z,101193.75
2023-05-12T17:15:06.133Z,101201.53
2023-05-12T17:17:35.107Z,101199.41
2023-05-12T17:20:02.615Z,101205.34
2023-05-12T17:22:31.965Z,101208.88
2023-05-12T17:24:59.000Z,101206.66
2023-05-12T17:27:26.150Z,101204.44
2023-05-12T17:29:53.253Z,101204.50
2023-05-12T17:32:20.307Z,101212.16
2023-05-12T17:34:50.983Z,101208.66
2023-05-12T17:37:18.584Z,101214.47
2023-05-12T17:39:46.154Z,101212.81
2023-05-12T17:42:14.488Z,101214.53
2023-05-12T17:44:41.631Z,101213.50
2023-05-12T17:47:08.989Z,101221.84
2023-05-12T17:49:36.265Z,101219.63
2023-05-12T17:52:03.429Z,101222.13
2023-05-12T17:54:30.503Z,101221.84
2023-05-12T17:56:57.917Z,101233.09
2023-05-12T17:59:25.220Z,101229.53
2023-05-12T18:01:54.126Z,101226.34
2023-05-12T18:04:22.991Z,101232.59
2023-05-12T18:06:50.247Z,101238.22
2023-05-12T18:09:17.978Z,101229.75
2023-05-12T18:11:49.525Z,101228.47
2023-05-12T18:14:19.727Z,101241.00
2023-05-12T18:16:46.843Z,101243.97
2023-05-12T18:19:14.002Z,101242.75
2023-05-12T18:21:41.463Z,101250.19
2023-05-12T18:24:08.963Z,101252.50
2023-05-12T18:26:36.089Z,101250.41
2023-05-12T18:29:03.172Z,101247.50
2023-05-12T18:31:30.395Z,101250.59
2023-05-12T18:33:57.463Z,101257.50
2023-05-12T18:36:24.551Z,101258.13
2023-05-12T18:38:51.692Z,101261.31
2023-05-12T18:41:18.973Z,101261.09
2023-05-12T18:43:46.118Z,101265.47
2023-05-12T18:46:13.415Z,101272.28
2023-05-12T18:48:40.486Z,101267.84
2023-05-12T18:51:07.980Z,101268.53
2023-05-12T18:53:35.163Z,101273.84
2023-05-12T18:56:02.272Z,101275.03
2023-05-12T18:58:29.358Z,101284.66
2023-05-12T19:00:56.471Z,101283.88
2023-05-12T19:03:23.519Z,101283.50
2023-05-12T19:05:50.643Z,101296.50
2023-05-12T19:08:19.800Z,101293.84
2023-05-12T19:10:48.367Z,101298.31
2023-05-12T19:13:15.456Z,101290.00
2023-05-12T19:15:42.655Z,101296.81
2023-05-12T19:18:09.750Z,101300.13
2023-05-12T19:20:37.723Z,101303.84
2023-05-12T19:23:04.954Z,101304.00
2023-05-12T19:25:32.195Z,101310.44
2023-05-12T19:27:59.968Z,101310.41
2023-05-12T19:30:29.545Z,101311.34
2023-05-12T19:32:57.135Z,101307.69
2023-05-12T19:35:27.632Z,101317.97
2023-05-12T19:37:54.852Z,101311.97
2023-05-12T19:40:21.996Z,101316.13
2023-05-12T19:42:50.242Z,101318.28
2023-05-12T19:45:17.603Z,101307.72
2023-05-12T19:47:45.207Z,101324.75
2023-05-12T19:50:15.026Z,101312.19
2023-05-12T19:52:42.366Z,101330.88
2023-05-12T19:55:10.212Z,101332.84
2023-05-12T19:57:38.105Z,101326.69
2023-05-12T20:00:12.943Z,101330.91
2023-05-12T20:02:41.560Z,101325.47
2023-05-12T20:05:09.461Z,101328.06
2023-05-12T20:07:36.621Z,101335.47
2023-05-12T20:10:04.520Z,101331.88
2023-05-12T20:12:31.577Z,101336.72
2023-05-12T20:14:58.616Z,101334.47
2023-05-12T20:17:25.887Z,101330.59
2023-05-12T20:19:53.110Z,101341.78
2023-05-12T20:22:21.295Z,101334.16
2023-05-12T20:24:51.361Z,101332.56
2023-05-12T20:27:18.517Z,101339.81
2023-05-12T20:29:45.628Z,101336.56
2023-05-12T20:32:15.106Z,101350.69
2023-05-12T20:34:42.155Z,101347.22
2023-05-12T20:37:09.317Z,101338.97
2023-05-12T20:39:36.376Z,101347.44
2023-05-12T20:42:03.806Z,101345.63
2023-05-12T20:44:31.197Z,101351.28
2023-05-12T20:46:58.338Z,101352.50
2023-05-12T20:49:25.464Z,101351.81
2023-05-12T20:51:52.577Z,101349.00
2023-05-12T20:54:19.622Z,101350.16
2023-05-12T20:56:46.686Z,101351.94
2023-05-12T20:59:13.794Z,101352.72
2023-05-12T21:01:40.939Z,101356.78
2023-05-12T21:04:08.086Z,101355.59
2023-05-12T21:06:36.933Z,101362.28
2023-05-12T21:09:04.949Z,101360.72
2023-05-12T21:11:32.007Z,101360.91
2023-05-12T21:13:59.081Z,101362.84
2023-05-12T21:16:26.337Z,101365.06
2023-05-12T21:18:53.598Z,101365.69
2023-05-12T21:21:20.643Z,101373.75
2023-05-12T21:23:47.709Z,101379.16
2023-05-12T21:26:14.748Z,101378.28
2023-05-12T21:28:41.752Z,101378.59
2023-05-12T21:31:09.547Z,101372.53
2023-05-12T21:33:36.609Z,101371.59
2023-05-12T21:36:04.092Z,101375.47
2023-05-12T21:38:32.756Z,101373.97
2023-05-12T21:41:00.368Z,101379.09
2023-05-12T21:43:27.447Z,101381.06
2023-05-12T21:45:54.884Z,101378.69
2023-05-12T21:48:22.044Z,101364.13
2023-05-12T21:51:02.610Z,101368.81
2023-05-12T21:53:30.007Z,101369.13
2023-05-12T21:55:57.046Z,101368.56
2023-05-12T21:58:24.385Z,101370.63
2023-05-12T22:00:52.361Z,101371.63
2023-05-12T22:03:25.047Z,101370.91
2023-05-12T22:05:52.635Z,101367.88
2023-05-12T22:08:19.922Z,101366.59
2023-05-12T22:10:47.292Z,101375.72
2023-05-12T22:13:16.819Z,101372.81
2023-05-12T22:15:43.837Z,101370.88
2023-05-12T22:18:11.004Z,101373.97
2023-05-12T22:20:38.189Z,101368.41
2023-05-12T22:23:05.732Z,101373.69
2023-05-12T22:25:32.774Z,101369.47
2023-05-12T22:27:59.853Z,101373.50
2023-05-12T22:30:26.911Z,101372.25
2023-05-12T22:32:54.078Z,101370.09
2023-05-12T22:35:21.241Z,101376.00
2023-05-12T22:37:49.657Z,101373.22
2023-05-12T22:40:18.911Z,101370.19
2023-05-12T22:42:46.039Z,101377.66
2023-05-12T22:45:13.085Z,101375.88
2023-05-12T22:47:40.196Z,101374.38
2023-05-12T22:50:10.461Z,101372.81
2023-05-12T22:52:38.925Z,101376.56
2023-05-12T22:55:09.102Z,101378.88
2023-05-12T22:57:38.468Z,101376.69
2023-05-12T23:00:07.150Z,101373.56
2023-05-12T23:02:34.350Z,101378.53
2023-05-12T23:05:01.538Z,101377.50
2023-05-12T23:07:28.712Z,101383.88
2023-05-12T23:09:55.814Z,101376.72
2023-05-12T23:12:22.857Z,101376.19
2023-05-12T23:14:52.773Z,101374.53
2023-05-12T23:17:20.795Z,101376.56
2023-05-12T23:19:47.980Z,101372.41
2023-05-12T23:22:15.099Z,101375.50
2023-05-12T23:24:44.018Z,101379.34
2023-05-12T23:27:11.430Z,101372.50
2023-05-12T23:29:38.488Z,101366.00
2023-05-12T23:32:06.122Z,101367.53
2023-05-12T23:34:33.288Z,101375.75
2023-05-12T23:37:00.491Z,101374.06
2023-05-12T23:39:27.607Z,101369.25
2023-05-12T23:41:54.668Z,101359.53
2023-05-12T23:44:21.788Z,101370.59
2023-05-12T23:46:48.991Z,101358.13
2023-05-12T23:49:16.172Z,101361.19
2023-05-12T23:51:43.218Z,101356.66
2023-05-12T23:54:10.391Z,101363.97
2023-05-12T23:56:37.430Z,101361.63
2023-05-12T23:59:04.500Z,101360.63
